Algodones, New Mexico
Current Conditions -  °F | °C
As of 11:52 PM on Wednesday 22 Oct 2014 (Local Time) from KABQ Reporting Station
Clear Clear  
Wind Chill: 16°   Ceiling: Unl
Heat Index: 16°   Visibility: 10mi
Dew Point:   Wind: 3mph
Humidity: 52%   Direction: 110°ESE
Pressure: 30.2"   Gusts: NA
Location:  35.38°N, 106.48°W
Report Text: KABQ 230552Z 11003KT 10SM CLR 16/06 A3020 RMK AO2 SLP168 T01610061 10222 20144 51008
Loading
Personal Weather Stations






























Interactive Weather Map
Tropical Storm Tracking
New forecast layout! Learn more

10-Day Weather Forecast

Advertisements
Track Severe Weather on mobile